createdAt,value
2017-08-11T00:02:05.816Z,4.47
2017-08-11T00:04:33.729Z,4.80
2017-08-11T00:07:01.235Z,4.80
2017-08-11T00:09:29.174Z,4.67
2017-08-11T00:11:56.682Z,4.70
2017-08-11T00:14:24.216Z,5.57
2017-08-11T00:16:51.746Z,5.20
2017-08-11T00:19:19.259Z,5.30
2017-08-11T00:21:47.167Z,6.23
2017-08-11T00:24:14.698Z,5.37
2017-08-11T00:26:42.210Z,5.70
2017-08-11T00:29:09.714Z,6.17
2017-08-11T00:31:37.639Z,5.27
2017-08-11T00:34:05.147Z,6.20
2017-08-11T00:36:32.650Z,6.03
2017-08-11T00:39:00.183Z,5.70
2017-08-11T00:41:27.691Z,6.10
2017-08-11T00:43:55.198Z,6.57
2017-08-11T00:46:22.742Z,6.17
2017-08-11T00:48:50.674Z,5.03
2017-08-11T00:51:18.183Z,5.63
2017-08-11T00:53:45.695Z,5.43
2017-08-11T00:56:13.230Z,5.27
2017-08-11T00:58:40.735Z,4.80
2017-08-11T01:01:08.244Z,5.30
2017-08-11T01:03:35.779Z,5.23
2017-08-11T01:06:03.283Z,4.60
2017-08-11T01:08:30.792Z,5.50
2017-08-11T01:10:58.714Z,4.90
2017-08-11T01:13:26.239Z,6.00
2017-08-11T01:15:53.748Z,6.40
2017-08-11T01:18:21.259Z,6.17
2017-08-11T01:20:48.786Z,6.13
2017-08-11T01:23:16.691Z,6.63
2017-08-11T01:25:44.198Z,6.40
2017-08-11T01:28:11.726Z,6.37
2017-08-11T01:30:39.238Z,6.37
2017-08-11T01:33:07.145Z,6.03
2017-08-11T01:35:34.676Z,6.10
2017-08-11T01:38:02.187Z,5.83
2017-08-11T01:40:29.691Z,5.30
2017-08-11T01:42:57.615Z,4.83
2017-08-11T01:45:25.123Z,4.90
2017-08-11T01:47:53.053Z,5.30
2017-08-11T01:50:20.559Z,5.17
2017-08-11T01:52:48.070Z,5.30
2017-08-11T01:55:15.609Z,5.50
2017-08-11T01:57:43.138Z,5.53
2017-08-11T02:00:10.646Z,4.50
2017-08-11T02:02:38.182Z,5.43
2017-08-11T02:05:05.699Z,5.10
2017-08-11T02:07:33.218Z,6.13
2017-08-11T02:10:00.755Z,5.13
2017-08-11T02:12:28.271Z,4.60
2017-08-11T02:14:55.780Z,4.33
2017-08-11T02:17:23.314Z,4.73
2017-08-11T02:19:50.823Z,5.07
2017-08-11T02:22:18.334Z,4.60
2017-08-11T02:24:45.875Z,5.00
2017-08-11T02:27:13.378Z,4.30
2017-08-11T02:29:40.890Z,4.80
2017-08-11T02:32:08.423Z,5.20
2017-08-11T02:34:35.942Z,5.00
2017-08-11T02:37:03.457Z,5.30
2017-08-11T02:39:31.493Z,6.13
2017-08-11T02:41:59.004Z,4.70
2017-08-11T02:44:26.514Z,5.07
2017-08-11T02:46:54.047Z,4.87
2017-08-11T02:49:21.555Z,5.00
2017-08-11T02:51:49.067Z,4.87
2017-08-11T02:54:16.610Z,5.00
2017-08-11T02:56:44.121Z,5.43
2017-08-11T02:59:11.663Z,5.70
2017-08-11T03:01:39.202Z,5.67
2017-08-11T03:04:07.116Z,5.47
2017-08-11T03:06:34.629Z,5.77
2017-08-11T03:09:02.598Z,6.10
2017-08-11T03:11:30.498Z,5.30
2017-08-11T03:13:58.012Z,5.40
2017-08-11T03:16:25.543Z,5.40
2017-08-11T03:18:53.085Z,5.83
2017-08-11T03:21:20.604Z,5.50
2017-08-11T03:23:48.130Z,5.30
2017-08-11T03:26:15.638Z,5.80
2017-08-11T03:28:43.547Z,5.93
2017-08-11T03:31:11.080Z,5.50
2017-08-11T03:33:38.594Z,5.90
2017-08-11T03:36:06.103Z,5.40
2017-08-11T03:38:33.658Z,5.67
2017-08-11T03:41:01.163Z,6.00
2017-08-11T03:43:28.671Z,5.10
2017-08-11T03:45:56.611Z,4.93
2017-08-11T03:48:24.135Z,5.20
2017-08-11T03:50:51.646Z,4.90
2017-08-11T03:53:19.199Z,5.10
2017-08-11T03:55:46.702Z,4.90
2017-08-11T03:58:14.211Z,4.43
2017-08-11T04:00:41.754Z,4.03
2017-08-11T04:03:09.263Z,4.60
2017-08-11T04:05:37.171Z,4.80
2017-08-11T04:08:04.698Z,4.87
2017-08-11T04:10:32.206Z,4.60
2017-08-11T04:12:59.733Z,4.73
2017-08-11T04:15:27.241Z,5.03
2017-08-11T04:17:54.747Z,5.13
2017-08-11T04:20:22.277Z,5.00
2017-08-11T04:22:50.184Z,4.60
2017-08-11T04:25:17.694Z,5.10
2017-08-11T04:27:45.227Z,5.30
2017-08-11T04:30:12.735Z,4.60
2017-08-11T04:32:40.631Z,5.20
2017-08-11T04:35:08.160Z,4.63
2017-08-11T04:37:36.063Z,5.50
2017-08-11T04:40:03.570Z,5.93
2017-08-11T04:42:31.102Z,4.63
2017-08-11T04:44:58.619Z,5.73
2017-08-11T04:47:26.133Z,5.33
2017-08-11T04:49:53.663Z,4.73
2017-08-11T04:52:21.171Z,5.20
2017-08-11T04:54:48.683Z,5.20
2017-08-11T04:57:16.219Z,4.90
2017-08-11T04:59:43.726Z,5.57
2017-08-11T05:02:11.235Z,4.63
2017-08-11T05:04:39.166Z,5.23
2017-08-11T05:07:06.695Z,5.17
2017-08-11T05:09:34.201Z,5.70
2017-08-11T05:12:01.734Z,6.03
2017-08-11T05:14:29.252Z,5.13
2017-08-11T05:16:56.762Z,5.90
2017-08-11T05:19:24.295Z,5.73
2017-08-11T05:21:51.802Z,5.20
2017-08-11T05:24:19.316Z,5.83
2017-08-11T05:26:46.843Z,4.90
2017-08-11T05:29:14.351Z,5.43
2017-08-11T05:31:41.864Z,6.10
2017-08-11T05:34:09.792Z,6.33
2017-08-11T05:36:37.298Z,6.00
2017-08-11T05:39:04.806Z,5.13
2017-08-11T05:41:32.334Z,5.77
2017-08-11T05:43:59.847Z,6.20
2017-08-11T05:46:27.355Z,5.87
2017-08-11T05:48:54.882Z,6.40
2017-08-11T05:51:22.787Z,6.37
2017-08-11T05:53:50.295Z,5.80
2017-08-11T05:56:17.832Z,5.90
2017-08-11T05:58:45.346Z,7.43
2017-08-11T06:01:12.854Z,6.70
2017-08-11T06:03:40.396Z,6.70
2017-08-11T06:06:07.909Z,6.87
2017-08-11T06:08:35.811Z,7.50
2017-08-11T06:11:03.346Z,8.43
2017-08-11T06:13:31.254Z,8.03
2017-08-11T06:15:58.790Z,8.03
2017-08-11T06:18:26.298Z,8.20
2017-08-11T06:20:53.806Z,8.13
2017-08-11T06:23:21.726Z,6.57
2017-08-11T06:25:49.234Z,6.97
2017-08-11T06:28:16.742Z,6.97
2017-08-11T06:30:44.274Z,7.03
2017-08-11T06:33:11.815Z,6.17
2017-08-11T06:35:39.338Z,7.90
2017-08-11T06:38:06.845Z,7.20
2017-08-11T06:40:34.383Z,7.53
2017-08-11T06:43:01.894Z,7.03
2017-08-11T06:45:29.402Z,7.83
2017-08-11T06:47:57.342Z,7.43
2017-08-11T06:50:24.851Z,7.07
2017-08-11T06:52:52.362Z,7.30
2017-08-11T06:55:19.888Z,8.43
2017-08-11T06:57:47.401Z,7.30
2017-08-11T07:00:14.899Z,7.30
2017-08-11T07:02:42.430Z,6.60
2017-08-11T07:05:09.935Z,7.10
2017-08-11T07:07:37.458Z,8.47
2017-08-11T07:10:05.387Z,8.30
2017-08-11T07:12:32.915Z,8.30
2017-08-11T07:15:00.424Z,8.83
2017-08-11T07:17:28.059Z,8.10
2017-08-11T07:19:55.571Z,8.20
2017-08-11T07:22:23.470Z,7.33
2017-08-11T07:24:51.002Z,8.50
2017-08-11T07:27:18.908Z,9.67
2017-08-11T07:29:46.419Z,9.17
2017-08-11T07:32:14.347Z,9.80
2017-08-11T07:34:41.863Z,9.00
2017-08-11T07:37:09.370Z,8.90
2017-08-11T07:39:37.731Z,8.70
2017-08-11T07:42:05.271Z,8.73
2017-08-11T07:44:32.783Z,8.77
2017-08-11T07:47:00.282Z,8.33
2017-08-11T07:49:27.844Z,7.87
2017-08-11T07:51:55.375Z,9.57
2017-08-11T07:54:22.879Z,8.20
2017-08-11T07:56:50.411Z,8.63
2017-08-11T07:59:18.343Z,8.70
2017-08-11T08:01:45.854Z,8.63
2017-08-11T08:04:13.756Z,9.20
2017-08-11T08:06:41.282Z,8.60
2017-08-11T08:09:09.187Z,8.80
2017-08-11T08:11:36.691Z,9.17
2017-08-11T08:14:04.218Z,9.13
2017-08-11T08:16:31.731Z,9.50
2017-08-11T08:18:59.635Z,9.00
2017-08-11T08:21:27.174Z,7.87
2017-08-11T08:23:54.685Z,9.00
2017-08-11T08:26:22.182Z,8.00
2017-08-11T08:28:50.106Z,8.23
2017-08-11T08:31:17.611Z,8.97
2017-08-11T08:33:45.513Z,8.40
2017-08-11T08:36:13.050Z,8.40
2017-08-11T08:38:40.546Z,8.33
2017-08-11T08:41:08.038Z,7.80
2017-08-11T08:43:35.562Z,7.60
2017-08-11T08:46:03.076Z,9.20
2017-08-11T08:48:30.995Z,9.30
2017-08-11T08:50:58.517Z,9.27
2017-08-11T08:53:26.027Z,8.63
2017-08-11T08:55:53.523Z,8.27
2017-08-11T08:58:21.050Z,8.47
2017-08-11T09:00:48.547Z,7.77
2017-08-11T09:03:16.439Z,7.90
2017-08-11T09:05:43.975Z,9.00
2017-08-11T09:08:11.875Z,10.50
2017-08-11T09:10:39.377Z,9.60
2017-08-11T09:13:06.911Z,12.57
2017-08-11T09:15:34.418Z,11.90
2017-08-11T09:18:02.322Z,12.27
2017-08-11T09:20:29.858Z,12.03
2017-08-11T09:22:57.370Z,13.33
2017-08-11T09:25:36.694Z,13.77
2017-08-11T09:28:16.090Z,14.50
2017-08-11T09:30:55.382Z,15.77
2017-08-11T09:33:34.838Z,14.80
2017-08-11T09:36:14.191Z,15.60
2017-08-11T09:38:42.116Z,18.40
2017-08-11T09:41:09.627Z,17.80
2017-08-11T09:43:37.570Z,18.00
2017-08-11T09:46:05.091Z,17.83
2017-08-11T09:48:32.622Z,16.80
2017-08-11T09:51:00.554Z,16.90
2017-08-11T09:53:28.099Z,17.50
2017-08-11T09:55:55.616Z,16.80
2017-08-11T09:58:23.529Z,18.67
2017-08-11T10:00:51.073Z,16.30
2017-08-11T10:03:18.579Z,15.27
2017-08-11T10:05:46.095Z,16.30
2017-08-11T10:08:13.647Z,15.27
2017-08-11T10:10:41.167Z,16.00
2017-08-11T10:13:09.084Z,17.93
2017-08-11T10:15:36.618Z,20.87
2017-08-11T10:18:04.128Z,19.70
2017-08-11T10:20:31.638Z,21.10
2017-08-11T10:22:59.188Z,20.33
2017-08-11T10:25:27.110Z,21.23
2017-08-11T10:27:54.634Z,21.73
2017-08-11T10:30:22.174Z,20.90
2017-08-11T10:32:50.090Z,21.33
2017-08-11T10:35:17.594Z,21.07
2017-08-11T10:37:45.130Z,19.83
2017-08-11T10:40:12.639Z,21.10
2017-08-11T10:42:40.158Z,21.77
2017-08-11T10:45:07.707Z,19.87
2017-08-11T10:47:35.228Z,20.03
2017-08-11T10:50:02.738Z,22.07
2017-08-11T10:52:30.275Z,20.87
2017-08-11T10:54:57.795Z,20.67
2017-08-11T10:57:25.322Z,20.83
2017-08-11T10:59:52.864Z,19.63
2017-08-11T11:02:20.378Z,20.33
2017-08-11T11:04:47.919Z,20.50
2017-08-11T11:07:15.418Z,21.50
2017-08-11T11:09:42.935Z,18.80
2017-08-11T11:12:10.471Z,23.07
2017-08-11T11:14:37.995Z,20.80
2017-08-11T11:17:05.499Z,21.77
2017-08-11T11:19:33.047Z,20.23
2017-08-11T11:22:00.578Z,21.63
2017-08-11T11:24:28.136Z,22.50
2017-08-11T11:26:55.651Z,22.93
2017-08-11T11:29:23.170Z,25.23
2017-08-11T11:31:50.710Z,27.60
2017-08-11T11:34:18.234Z,27.50
2017-08-11T11:36:45.745Z,27.10
2017-08-11T11:39:13.310Z,24.53
2017-08-11T11:41:40.874Z,27.47
2017-08-11T11:44:08.391Z,26.83
2017-08-11T11:46:35.921Z,25.90
2017-08-11T11:49:03.431Z,27.40
2017-08-11T11:51:30.959Z,25.80
2017-08-11T11:53:58.498Z,25.67
2017-08-11T11:56:26.012Z,25.63
2017-08-11T11:58:53.531Z,26.60
2017-08-11T12:01:21.070Z,26.60
2017-08-11T12:03:48.583Z,26.20
2017-08-11T12:06:16.103Z,25.17
2017-08-11T12:08:43.639Z,26.40
2017-08-11T12:11:11.171Z,28.93
2017-08-11T12:13:38.741Z,27.90
2017-08-11T12:16:06.255Z,26.00
2017-08-11T12:18:33.778Z,27.07
2017-08-11T12:21:01.320Z,27.00
2017-08-11T12:23:28.831Z,28.60
2017-08-11T12:25:56.346Z,26.50
2017-08-11T12:28:23.880Z,26.23
2017-08-11T12:30:51.796Z,23.73
2017-08-11T12:33:19.306Z,26.30
2017-08-11T12:35:47.269Z,23.47
2017-08-11T12:38:15.171Z,23.10
2017-08-11T12:40:42.687Z,23.13
2017-08-11T12:43:10.234Z,22.00
2017-08-11T12:45:37.756Z,21.07
2017-08-11T12:48:05.274Z,19.97
2017-08-11T12:50:33.238Z,18.77
2017-08-11T12:53:00.758Z,18.13
2017-08-11T12:55:28.262Z,19.27
2017-08-11T12:57:55.795Z,19.13
2017-08-11T13:00:23.310Z,20.57
2017-08-11T13:02:50.834Z,20.13
2017-08-11T13:05:18.384Z,21.80
2017-08-11T13:07:45.887Z,21.87
2017-08-11T13:10:13.402Z,23.40
2017-08-11T13:12:40.952Z,25.40
2017-08-11T13:15:08.465Z,24.37
2017-08-11T13:17:35.983Z,27.30
2017-08-11T13:20:03.523Z,26.60
2017-08-11T13:22:31.047Z,25.30
2017-08-11T13:24:58.558Z,24.50
2017-08-11T13:27:26.095Z,25.03
2017-08-11T13:29:53.606Z,28.23
2017-08-11T13:32:21.118Z,30.20
2017-08-11T13:34:48.646Z,30.77
2017-08-11T13:37:16.163Z,32.20
2017-08-11T13:39:43.667Z,34.00
2017-08-11T13:42:11.198Z,32.80
2017-08-11T13:44:38.728Z,33.67
2017-08-11T13:47:06.263Z,37.10
2017-08-11T13:49:33.800Z,37.80
2017-08-11T13:52:01.708Z,39.80
2017-08-11T13:54:29.239Z,40.40
2017-08-11T13:56:56.883Z,40.87
2017-08-11T13:59:24.803Z,40.30
2017-08-11T14:01:52.317Z,40.17
2017-08-11T14:04:20.251Z,39.93
2017-08-11T14:06:47.766Z,43.63
2017-08-11T14:09:15.270Z,41.77
2017-08-11T14:11:42.807Z,41.27
2017-08-11T14:14:10.319Z,45.30
2017-08-11T14:16:38.226Z,40.03
2017-08-11T14:19:05.759Z,39.90
2017-08-11T14:21:33.767Z,40.90
2017-08-11T14:24:06.994Z,42.03
2017-08-11T14:26:34.521Z,41.23
2017-08-11T14:29:02.026Z,45.80
2017-08-11T14:31:29.544Z,38.83
2017-08-11T14:33:57.070Z,38.23
2017-08-11T14:36:24.578Z,38.20
2017-08-11T14:38:52.081Z,40.63
2017-08-11T14:41:19.622Z,37.70
2017-08-11T14:43:47.130Z,38.63
2017-08-11T14:46:14.646Z,38.37
2017-08-11T14:48:42.179Z,33.93
2017-08-11T14:51:09.690Z,32.13
2017-08-11T14:53:37.603Z,33.67
2017-08-11T14:56:05.134Z,32.23
2017-08-11T14:58:32.655Z,29.20
2017-08-11T15:01:00.171Z,30.40
2017-08-11T15:03:27.715Z,29.10
2017-08-11T15:05:55.227Z,31.90
2017-08-11T15:08:22.751Z,29.63
2017-08-11T15:10:50.291Z,30.33
2017-08-11T15:13:17.805Z,30.80
2017-08-11T15:15:45.312Z,30.90
2017-08-11T15:18:12.855Z,28.50
2017-08-11T15:20:40.762Z,28.60
2017-08-11T15:23:08.278Z,27.73
2017-08-11T15:25:36.172Z,29.30
2017-08-11T15:28:03.714Z,28.40
2017-08-11T15:30:31.234Z,29.80
2017-08-11T15:32:58.783Z,32.23
2017-08-11T15:35:26.288Z,30.10
2017-08-11T15:37:54.199Z,29.20
2017-08-11T15:40:21.739Z,28.80
2017-08-11T15:42:49.254Z,31.07
2017-08-11T15:45:16.777Z,29.40
2017-08-11T15:47:44.310Z,31.73
2017-08-11T15:50:12.210Z,27.23
2017-08-11T15:52:39.723Z,28.50
2017-08-11T15:55:07.656Z,30.37
2017-08-11T15:57:35.175Z,30.10
2017-08-11T16:00:02.695Z,28.97
2017-08-11T16:02:30.222Z,29.93
2017-08-11T16:04:57.722Z,30.83
2017-08-11T16:07:25.250Z,31.40
2017-08-11T16:09:52.786Z,32.10
2017-08-11T16:12:20.295Z,31.00
2017-08-11T16:14:47.829Z,32.47
2017-08-11T16:17:15.347Z,32.40
2017-08-11T16:19:42.858Z,34.97
2017-08-11T16:22:10.390Z,34.17
2017-08-11T16:24:37.902Z,34.50
2017-08-11T16:27:05.412Z,35.37
2017-08-11T16:29:32.947Z,35.87
2017-08-11T16:32:00.871Z,37.00
2017-08-11T16:34:28.382Z,38.07
2017-08-11T16:36:55.920Z,35.60
2017-08-11T16:39:23.826Z,36.63
2017-08-11T16:41:51.343Z,36.03
2017-08-11T16:44:18.896Z,40.73
2017-08-11T16:49:19.514Z,39.03
2017-08-11T16:51:47.018Z,36.03
2017-08-11T16:54:14.530Z,36.77
2017-08-11T16:56:42.068Z,39.87
2017-08-11T16:59:09.582Z,36.53
2017-08-11T17:01:37.082Z,38.83
2017-08-11T17:04:04.631Z,38.80
2017-08-11T17:06:32.134Z,40.57
2017-08-11T17:08:59.641Z,38.40
2017-08-11T17:11:27.171Z,38.33
2017-08-11T17:13:54.674Z,45.43
2017-08-11T17:16:22.583Z,46.70
2017-08-11T17:18:50.117Z,42.90
2017-08-11T17:21:17.621Z,39.67
2017-08-11T17:23:45.122Z,39.33
2017-08-11T17:26:13.062Z,30.93
2017-08-11T17:28:40.575Z,29.23
2017-08-11T17:31:08.087Z,29.53
2017-08-11T17:33:35.623Z,31.37
2017-08-11T17:36:03.143Z,28.70
2017-08-11T17:38:30.663Z,28.17
2017-08-11T17:40:58.212Z,26.40
2017-08-11T17:43:25.748Z,28.03
2017-08-11T17:45:53.258Z,28.57
2017-08-11T17:48:20.806Z,29.23
2017-08-11T17:50:48.318Z,29.63
2017-08-11T17:53:15.927Z,29.40
2017-08-11T17:55:43.462Z,29.33
2017-08-11T17:58:10.985Z,27.90
2017-08-11T18:00:38.499Z,27.53
2017-08-11T18:03:06.035Z,31.60
2017-08-11T18:05:33.542Z,35.20
2017-08-11T18:08:01.056Z,32.47
2017-08-11T18:10:28.595Z,35.03
2017-08-11T18:12:56.145Z,33.60
2017-08-11T18:15:23.658Z,35.67
2017-08-11T18:17:51.193Z,37.70
2017-08-11T18:20:18.706Z,36.27
2017-08-11T18:22:46.214Z,37.50
2017-08-11T18:25:13.751Z,36.10
2017-08-11T18:27:41.259Z,38.67
2017-08-11T18:30:08.795Z,38.20
2017-08-11T18:32:36.302Z,37.67
2017-08-11T18:35:03.812Z,38.20
2017-08-11T18:37:31.345Z,37.40
2017-08-11T18:39:58.850Z,36.20
2017-08-11T18:42:26.367Z,38.00
2017-08-11T18:44:53.905Z,40.93
2017-08-11T18:47:21.418Z,39.10
2017-08-11T18:49:48.935Z,36.50
2017-08-11T18:52:16.467Z,39.03
2017-08-11T18:54:43.998Z,36.60
2017-08-11T18:57:11.509Z,41.57
2017-08-11T18:59:39.459Z,36.80
2017-08-11T19:02:06.970Z,41.03
2017-08-11T19:04:34.478Z,36.37
2017-08-11T19:07:02.014Z,36.30
2017-08-11T19:09:29.528Z,38.30
2017-08-11T19:11:57.439Z,39.17
2017-08-11T19:14:24.978Z,38.57
2017-08-11T19:16:52.493Z,36.73
2017-08-11T19:19:20.002Z,38.60
2017-08-11T19:21:47.543Z,39.50
2017-08-11T19:24:15.454Z,39.27
2017-08-11T19:26:43.002Z,41.63
2017-08-11T19:29:10.530Z,41.20
2017-08-11T19:31:38.468Z,40.30
2017-08-11T19:34:05.985Z,40.03
2017-08-11T19:36:33.519Z,42.27
2017-08-11T19:39:01.451Z,41.90
2017-08-11T19:41:28.967Z,44.07
2017-08-11T19:43:56.513Z,43.67
2017-08-11T19:46:24.054Z,42.93
2017-08-11T19:48:51.576Z,42.57
2017-08-11T19:51:19.087Z,44.03
2017-08-11T19:53:47.024Z,43.60
2017-08-11T19:56:14.542Z,45.57
2017-08-11T19:58:42.059Z,44.33
2017-08-11T20:01:09.602Z,41.47
2017-08-11T20:03:37.110Z,43.87
2017-08-11T20:06:04.630Z,45.60
2017-08-11T20:08:32.171Z,44.50
2017-08-11T20:10:59.687Z,44.20
2017-08-11T20:13:27.197Z,44.50
2017-08-11T20:15:54.735Z,46.73
2017-08-11T20:18:22.254Z,48.97
2017-08-11T20:20:49.782Z,46.53
2017-08-11T20:23:17.327Z,46.93
2017-08-11T20:25:44.862Z,47.30
2017-08-11T20:28:12.373Z,47.97
2017-08-11T20:30:39.885Z,47.10
2017-08-11T20:33:07.422Z,49.27
2017-08-11T20:35:35.335Z,45.20
2017-08-11T20:38:02.856Z,41.93
2017-08-11T20:40:30.411Z,46.77
2017-08-11T20:42:58.318Z,50.30
2017-08-11T20:45:25.858Z,48.00
2017-08-11T20:47:53.399Z,46.67
2017-08-11T20:50:21.326Z,46.30
2017-08-11T20:52:48.863Z,48.63
2017-08-11T20:55:16.477Z,48.87
2017-08-11T20:57:43.990Z,51.03
2017-08-11T21:00:11.530Z,50.30
2017-08-11T21:02:39.065Z,53.60
2017-08-11T21:05:06.978Z,54.17
2017-08-11T21:07:34.525Z,48.43
2017-08-11T21:10:02.039Z,46.17
2017-08-11T21:12:29.558Z,45.53
2017-08-11T21:14:57.095Z,50.27
2017-08-11T21:17:24.619Z,46.80
2017-08-11T21:19:52.138Z,42.50
2017-08-11T21:22:19.679Z,43.27
2017-08-11T21:24:47.201Z,44.77
2017-08-11T21:27:14.741Z,45.70
2017-08-11T21:29:42.258Z,48.80
2017-08-11T21:32:09.842Z,46.37
2017-08-11T21:34:37.383Z,47.13
2017-08-11T21:37:04.903Z,48.77
2017-08-11T21:39:32.416Z,48.23
2017-08-11T21:41:59.953Z,45.10
2017-08-11T21:44:27.471Z,44.87
2017-08-11T21:46:54.987Z,46.53
2017-08-11T21:49:22.540Z,47.30
2017-08-11T21:51:50.059Z,45.30
2017-08-11T21:54:17.570Z,42.90
2017-08-11T21:56:45.107Z,39.07
2017-08-11T21:59:12.623Z,42.30
2017-08-11T22:01:40.143Z,39.10
2017-08-11T22:04:07.674Z,40.20
2017-08-11T22:06:35.195Z,42.10
2017-08-11T22:09:02.716Z,41.47
2017-08-11T22:11:30.255Z,36.03
2017-08-11T22:13:57.771Z,34.90
2017-08-11T22:16:25.295Z,34.10
2017-08-11T22:18:52.835Z,32.47
2017-08-11T22:21:20.379Z,32.00
2017-08-11T22:23:47.886Z,28.00
2017-08-11T22:26:15.403Z,33.33
2017-08-11T22:28:42.939Z,32.67
2017-08-11T22:31:10.451Z,29.20
2017-08-11T22:33:38.358Z,28.20
2017-08-11T22:36:05.890Z,30.30
2017-08-11T22:38:33.401Z,27.17
2017-08-11T22:41:00.906Z,25.53
2017-08-11T22:43:28.452Z,28.43
2017-08-11T22:45:56.371Z,26.90
2017-08-11T22:48:23.883Z,29.07
2017-08-11T22:50:51.823Z,26.47
2017-08-11T22:53:19.330Z,25.00
2017-08-11T22:55:47.103Z,25.57
2017-08-11T22:58:14.614Z,24.90
2017-08-11T23:00:42.122Z,26.40
2017-08-11T23:03:09.666Z,22.00
2017-08-11T23:05:37.569Z,23.53
2017-08-11T23:08:05.084Z,24.47
2017-08-11T23:10:33.026Z,22.43
2017-08-11T23:13:00.539Z,22.70
2017-08-11T23:15:28.054Z,23.40
2017-08-11T23:17:55.590Z,24.47
2017-08-11T23:20:23.099Z,21.50
2017-08-11T23:22:51.011Z,22.53
2017-08-11T23:25:18.542Z,22.93
2017-08-11T23:27:46.054Z,20.93
2017-08-11T23:30:13.567Z,22.40
2017-08-11T23:32:41.103Z,23.57
2017-08-11T23:35:08.642Z,23.13
2017-08-11T23:37:36.163Z,25.47
2017-08-11T23:40:03.703Z,26.00
2017-08-11T23:42:31.215Z,27.63
2017-08-11T23:44:58.726Z,25.00
2017-08-11T23:49:15.990Z,27.00
2017-08-11T23:51:43.502Z,25.93
2017-08-11T23:54:11.427Z,23.10
2017-08-11T23:56:38.968Z,26.83
2017-08-11T23:59:06.482Z,25.60
